sensor_id;sensor_type;location;lat;lon;timestamp;temperature;humidity
12166;DHT22;6146;48.128;11.476;2023-04-24T00:02:03;10.60;99.90
12166;DHT22;6146;48.128;11.476;2023-04-24T00:04:29;10.60;99.90
12166;DHT22;6146;48.128;11.476;2023-04-24T00:06:55;10.60;99.90
12166;DHT22;6146;48.128;11.476;2023-04-24T00:09:22;10.60;99.90
12166;DHT22;6146;48.128;11.476;2023-04-24T00:11:48;10.50;99.90
12166;DHT22;6146;48.128;11.476;2023-04-24T00:14:14;10.50;99.90
12166;DHT22;6146;48.128;11.476;2023-04-24T00:16:39;10.50;99.90
12166;DHT22;6146;48.128;11.476;2023-04-24T00:19:05;10.50;99.90
12166;DHT22;6146;48.128;11.476;2023-04-24T00:21:32;10.50;99.90
12166;DHT22;6146;48.128;11.476;2023-04-24T00:23:58;10.40;99.90
12166;DHT22;6146;48.128;11.476;2023-04-24T00:26:23;10.40;99.90
12166;DHT22;6146;48.128;11.476;2023-04-24T00:28:49;10.40;99.90
12166;DHT22;6146;48.128;11.476;2023-04-24T00:31:15;10.40;99.90
12166;DHT22;6146;48.128;11.476;2023-04-24T00:33:41;10.40;99.90
12166;DHT22;6146;48.128;11.476;2023-04-24T00:36:06;10.30;99.90
12166;DHT22;6146;48.128;11.476;2023-04-24T00:38:32;10.30;99.90
12166;DHT22;6146;48.128;11.476;2023-04-24T00:40:58;10.30;99.90
12166;DHT22;6146;48.128;11.476;2023-04-24T00:43:24;10.30;99.90
12166;DHT22;6146;48.128;11.476;2023-04-24T00:45:50;10.30;99.90
12166;DHT22;6146;48.128;11.476;2023-04-24T00:48:16;10.30;99.90
12166;DHT22;6146;48.128;11.476;2023-04-24T00:50:42;10.20;99.90
12166;DHT22;6146;48.128;11.476;2023-04-24T00:53:07;10.20;99.90
12166;DHT22;6146;48.128;11.476;2023-04-24T00:55:33;10.20;99.90
12166;DHT22;6146;48.128;11.476;2023-04-24T00:57:59;10.20;99.90
12166;DHT22;6146;48.128;11.476;2023-04-24T01:00:25;10.10;99.90
12166;DHT22;6146;48.128;11.476;2023-04-24T01:02:51;10.10;99.90
12166;DHT22;6146;48.128;11.476;2023-04-24T01:05:17;10.10;99.90
12166;DHT22;6146;48.128;11.476;2023-04-24T01:07:45;10.10;99.90
12166;DHT22;6146;48.128;11.476;2023-04-24T01:10:15;10.00;99.90
12166;DHT22;6146;48.128;11.476;2023-04-24T01:12:42;10.00;99.90
12166;DHT22;6146;48.128;11.476;2023-04-24T01:15:09;10.00;99.90
12166;DHT22;6146;48.128;11.476;2023-04-24T01:17:35;10.00;99.90
12166;DHT22;6146;48.128;11.476;2023-04-24T01:20:01;10.00;99.90
12166;DHT22;6146;48.128;11.476;2023-04-24T01:22:29;9.90;99.90
12166;DHT22;6146;48.128;11.476;2023-04-24T01:24:55;9.90;99.90
12166;DHT22;6146;48.128;11.476;2023-04-24T01:27:20;9.90;99.90
12166;DHT22;6146;48.128;11.476;2023-04-24T01:29:46;9.90;99.90
12166;DHT22;6146;48.128;11.476;2023-04-24T01:32:14;9.80;99.90
12166;DHT22;6146;48.128;11.476;2023-04-24T01:34:40;9.80;99.90
12166;DHT22;6146;48.128;11.476;2023-04-24T01:37:06;9.80;99.90
12166;DHT22;6146;48.128;11.476;2023-04-24T01:39:32;9.80;99.90
12166;DHT22;6146;48.128;11.476;2023-04-24T01:41:59;9.80;99.90
12166;DHT22;6146;48.128;11.476;2023-04-24T01:44:26;9.70;99.90
12166;DHT22;6146;48.128;11.476;2023-04-24T01:46:52;9.70;99.90
12166;DHT22;6146;48.128;11.476;2023-04-24T01:49:19;9.70;99.90
12166;DHT22;6146;48.128;11.476;2023-04-24T01:51:45;9.70;99.90
12166;DHT22;6146;48.128;11.476;2023-04-24T01:54:11;9.70;99.90
12166;DHT22;6146;48.128;11.476;2023-04-24T01:56:41;9.70;99.90
12166;DHT22;6146;48.128;11.476;2023-04-24T01:59:10;9.70;99.90
12166;DHT22;6146;48.128;11.476;2023-04-24T02:01:37;9.70;99.90
12166;DHT22;6146;48.128;11.476;2023-04-24T02:04:04;9.70;99.90
12166;DHT22;6146;48.128;11.476;2023-04-24T02:06:30;9.70;99.90
12166;DHT22;6146;48.128;11.476;2023-04-24T02:08:58;9.60;99.90
12166;DHT22;6146;48.128;11.476;2023-04-24T02:11:24;9.70;99.90
12166;DHT22;6146;48.128;11.476;2023-04-24T02:13:49;9.70;99.90
12166;DHT22;6146;48.128;11.476;2023-04-24T02:16:15;9.70;99.90
12166;DHT22;6146;48.128;11.476;2023-04-24T02:18:41;9.70;99.90
12166;DHT22;6146;48.128;11.476;2023-04-24T02:21:06;9.60;99.90
12166;DHT22;6146;48.128;11.476;2023-04-24T02:23:32;9.60;99.90
12166;DHT22;6146;48.128;11.476;2023-04-24T02:25:57;9.70;99.90
12166;DHT22;6146;48.128;11.476;2023-04-24T02:28:23;9.70;99.90
12166;DHT22;6146;48.128;11.476;2023-04-24T02:30:50;9.70;99.90
12166;DHT22;6146;48.128;11.476;2023-04-24T02:33:15;9.70;99.90
12166;DHT22;6146;48.128;11.476;2023-04-24T02:35:41;9.70;99.90
12166;DHT22;6146;48.128;11.476;2023-04-24T02:38:06;9.70;99.90
12166;DHT22;6146;48.128;11.476;2023-04-24T02:40:32;9.70;99.90
12166;DHT22;6146;48.128;11.476;2023-04-24T02:42:58;9.70;99.90
12166;DHT22;6146;48.128;11.476;2023-04-24T02:45:23;9.70;99.90
12166;DHT22;6146;48.128;11.476;2023-04-24T02:47:49;9.70;99.90
12166;DHT22;6146;48.128;11.476;2023-04-24T02:50:14;9.70;99.90
12166;DHT22;6146;48.128;11.476;2023-04-24T02:52:40;9.70;99.90
12166;DHT22;6146;48.128;11.476;2023-04-24T02:55:06;9.70;99.90
12166;DHT22;6146;48.128;11.476;2023-04-24T02:57:33;9.70;99.90
12166;DHT22;6146;48.128;11.476;2023-04-24T02:59:59;9.70;99.90
12166;DHT22;6146;48.128;11.476;2023-04-24T03:02:25;9.70;99.90
12166;DHT22;6146;48.128;11.476;2023-04-24T03:04:50;9.60;99.90
12166;DHT22;6146;48.128;11.476;2023-04-24T03:07:16;8.40;99.90
12166;DHT22;6146;48.128;11.476;2023-04-24T03:09:41;9.60;99.90
12166;DHT22;6146;48.128;11.476;2023-04-24T03:12:07;9.50;99.90
12166;DHT22;6146;48.128;11.476;2023-04-24T03:14:32;9.50;99.90
12166;DHT22;6146;48.128;11.476;2023-04-24T03:16:58;9.50;99.90
12166;DHT22;6146;48.128;11.476;2023-04-24T03:19:24;9.50;99.90
12166;DHT22;6146;48.128;11.476;2023-04-24T03:21:49;9.50;99.90
12166;DHT22;6146;48.128;11.476;2023-04-24T03:24:15;9.50;99.90
12166;DHT22;6146;48.128;11.476;2023-04-24T03:26:41;9.40;99.90
12166;DHT22;6146;48.128;11.476;2023-04-24T03:29:06;9.50;99.90
12166;DHT22;6146;48.128;11.476;2023-04-24T03:31:32;9.50;99.90
12166;DHT22;6146;48.128;11.476;2023-04-24T03:33:57;9.40;99.90
12166;DHT22;6146;48.128;11.476;2023-04-24T03:36:23;9.40;99.90
12166;DHT22;6146;48.128;11.476;2023-04-24T03:38:48;9.40;99.90
12166;DHT22;6146;48.128;11.476;2023-04-24T03:41:14;9.40;99.90
12166;DHT22;6146;48.128;11.476;2023-04-24T03:43:40;9.40;99.90
12166;DHT22;6146;48.128;11.476;2023-04-24T03:46:05;9.40;99.90
12166;DHT22;6146;48.128;11.476;2023-04-24T03:48:31;9.40;99.90
12166;DHT22;6146;48.128;11.476;2023-04-24T03:50:56;9.40;99.90
12166;DHT22;6146;48.128;11.476;2023-04-24T03:53:22;9.40;99.90
12166;DHT22;6146;48.128;11.476;2023-04-24T03:55:47;9.40;99.90
12166;DHT22;6146;48.128;11.476;2023-04-24T03:58:13;9.40;99.90
12166;DHT22;6146;48.128;11.476;2023-04-24T04:00:40;9.40;99.90
12166;DHT22;6146;48.128;11.476;2023-04-24T04:03:06;9.40;99.90
12166;DHT22;6146;48.128;11.476;2023-04-24T04:05:31;9.40;99.90
12166;DHT22;6146;48.128;11.476;2023-04-24T04:07:57;9.40;99.90
12166;DHT22;6146;48.128;11.476;2023-04-24T04:10:23;9.40;99.90
12166;DHT22;6146;48.128;11.476;2023-04-24T04:12:48;9.40;99.90
12166;DHT22;6146;48.128;11.476;2023-04-24T04:15:14;9.40;99.90
12166;DHT22;6146;48.128;11.476;2023-04-24T04:17:40;9.40;99.90
12166;DHT22;6146;48.128;11.476;2023-04-24T04:20:06;9.40;99.90
12166;DHT22;6146;48.128;11.476;2023-04-24T04:22:35;9.40;99.90
12166;DHT22;6146;48.128;11.476;2023-04-24T04:25:01;9.40;99.90
12166;DHT22;6146;48.128;11.476;2023-04-24T04:27:26;9.30;99.90
12166;DHT22;6146;48.128;11.476;2023-04-24T04:29:52;9.30;99.90
12166;DHT22;6146;48.128;11.476;2023-04-24T04:32:18;9.30;99.90
12166;DHT22;6146;48.128;11.476;2023-04-24T04:34:43;9.30;99.90
12166;DHT22;6146;48.128;11.476;2023-04-24T04:37:11;9.30;99.90
12166;DHT22;6146;48.128;11.476;2023-04-24T04:39:38;9.30;99.90
12166;DHT22;6146;48.128;11.476;2023-04-24T04:42:03;9.30;99.90
12166;DHT22;6146;48.128;11.476;2023-04-24T04:44:29;9.40;99.90
12166;DHT22;6146;48.128;11.476;2023-04-24T04:46:56;9.40;99.90
12166;DHT22;6146;48.128;11.476;2023-04-24T04:49:22;9.40;99.90
12166;DHT22;6146;48.128;11.476;2023-04-24T04:51:49;9.40;99.90
12166;DHT22;6146;48.128;11.476;2023-04-24T04:54:16;9.40;99.90
12166;DHT22;6146;48.128;11.476;2023-04-24T04:56:41;9.40;99.90
12166;DHT22;6146;48.128;11.476;2023-04-24T04:59:07;9.40;99.90
12166;DHT22;6146;48.128;11.476;2023-04-24T05:01:32;9.30;99.90
12166;DHT22;6146;48.128;11.476;2023-04-24T05:03:58;9.30;99.90
12166;DHT22;6146;48.128;11.476;2023-04-24T05:06:24;9.30;99.90
12166;DHT22;6146;48.128;11.476;2023-04-24T05:08:50;9.30;99.90
12166;DHT22;6146;48.128;11.476;2023-04-24T05:11:16;9.40;99.90
12166;DHT22;6146;48.128;11.476;2023-04-24T05:13:42;9.40;99.90
12166;DHT22;6146;48.128;11.476;2023-04-24T05:16:07;9.50;99.90
12166;DHT22;6146;48.128;11.476;2023-04-24T05:18:33;9.60;99.90
12166;DHT22;6146;48.128;11.476;2023-04-24T05:20:58;9.60;99.90
12166;DHT22;6146;48.128;11.476;2023-04-24T05:23:24;9.60;99.90
12166;DHT22;6146;48.128;11.476;2023-04-24T05:25:49;9.80;99.90
12166;DHT22;6146;48.128;11.476;2023-04-24T05:28:15;9.70;99.90
12166;DHT22;6146;48.128;11.476;2023-04-24T05:30:40;9.70;99.90
12166;DHT22;6146;48.128;11.476;2023-04-24T05:33:06;9.70;99.90
12166;DHT22;6146;48.128;11.476;2023-04-24T05:35:32;9.80;99.90
12166;DHT22;6146;48.128;11.476;2023-04-24T05:37:57;9.80;99.90
12166;DHT22;6146;48.128;11.476;2023-04-24T05:40:23;9.90;99.90
12166;DHT22;6146;48.128;11.476;2023-04-24T05:42:48;9.90;99.90
12166;DHT22;6146;48.128;11.476;2023-04-24T05:45:14;9.90;99.90
12166;DHT22;6146;48.128;11.476;2023-04-24T05:47:42;9.80;99.90
12166;DHT22;6146;48.128;11.476;2023-04-24T05:50:09;9.80;99.90
12166;DHT22;6146;48.128;11.476;2023-04-24T05:52:35;9.90;99.90
12166;DHT22;6146;48.128;11.476;2023-04-24T05:55:01;9.90;99.90
12166;DHT22;6146;48.128;11.476;2023-04-24T05:57:26;10.00;99.90
12166;DHT22;6146;48.128;11.476;2023-04-24T05:59:52;10.00;99.90
12166;DHT22;6146;48.128;11.476;2023-04-24T06:02:17;10.10;99.90
12166;DHT22;6146;48.128;11.476;2023-04-24T06:04:43;10.30;99.90
12166;DHT22;6146;48.128;11.476;2023-04-24T06:07:11;10.50;99.90
12166;DHT22;6146;48.128;11.476;2023-04-24T06:09:36;10.70;99.90
12166;DHT22;6146;48.128;11.476;2023-04-24T06:12:02;10.80;99.90
12166;DHT22;6146;48.128;11.476;2023-04-24T06:14:28;10.90;99.90
12166;DHT22;6146;48.128;11.476;2023-04-24T06:16:53;10.90;99.90
12166;DHT22;6146;48.128;11.476;2023-04-24T06:19:19;11.00;99.90
12166;DHT22;6146;48.128;11.476;2023-04-24T06:21:44;11.00;99.90
12166;DHT22;6146;48.128;11.476;2023-04-24T06:24:10;11.10;99.90
12166;DHT22;6146;48.128;11.476;2023-04-24T06:26:36;11.10;99.90
12166;DHT22;6146;48.128;11.476;2023-04-24T06:29:01;11.20;99.90
12166;DHT22;6146;48.128;11.476;2023-04-24T06:31:27;11.10;99.90
12166;DHT22;6146;48.128;11.476;2023-04-24T06:33:53;11.10;99.90
12166;DHT22;6146;48.128;11.476;2023-04-24T06:36:19;11.10;99.90
12166;DHT22;6146;48.128;11.476;2023-04-24T06:38:45;11.10;99.90
12166;DHT22;6146;48.128;11.476;2023-04-24T06:41:10;11.10;99.90
12166;DHT22;6146;48.128;11.476;2023-04-24T06:43:36;11.30;99.90
12166;DHT22;6146;48.128;11.476;2023-04-24T06:46:01;11.60;99.90
12166;DHT22;6146;48.128;11.476;2023-04-24T06:48:28;11.90;99.90
12166;DHT22;6146;48.128;11.476;2023-04-24T06:50:54;12.10;99.90
12166;DHT22;6146;48.128;11.476;2023-04-24T06:53:20;12.40;99.90
12166;DHT22;6146;48.128;11.476;2023-04-24T06:55:45;12.40;99.90
12166;DHT22;6146;48.128;11.476;2023-04-24T06:58:11;12.20;99.90
12166;DHT22;6146;48.128;11.476;2023-04-24T07:00:37;12.20;99.90
12166;DHT22;6146;48.128;11.476;2023-04-24T07:03:03;12.50;99.90
12166;DHT22;6146;48.128;11.476;2023-04-24T07:05:30;13.00;99.90
12166;DHT22;6146;48.128;11.476;2023-04-24T07:07:56;13.50;99.90
12166;DHT22;6146;48.128;11.476;2023-04-24T07:10:23;13.50;99.90
12166;DHT22;6146;48.128;11.476;2023-04-24T07:12:49;13.50;99.90
12166;DHT22;6146;48.128;11.476;2023-04-24T07:15:15;13.30;99.90
12166;DHT22;6146;48.128;11.476;2023-04-24T07:17:41;13.20;99.90
12166;DHT22;6146;48.128;11.476;2023-04-24T07:20:10;12.90;99.90
12166;DHT22;6146;48.128;11.476;2023-04-24T07:22:37;12.70;99.90
12166;DHT22;6146;48.128;11.476;2023-04-24T07:25:03;12.50;99.90
12166;DHT22;6146;48.128;11.476;2023-04-24T07:27:28;12.20;99.90
12166;DHT22;6146;48.128;11.476;2023-04-24T07:29:54;12.10;99.90
12166;DHT22;6146;48.128;11.476;2023-04-24T07:32:20;12.00;99.90
12166;DHT22;6146;48.128;11.476;2023-04-24T07:34:45;12.20;99.90
12166;DHT22;6146;48.128;11.476;2023-04-24T07:37:11;12.20;99.90
12166;DHT22;6146;48.128;11.476;2023-04-24T07:39:37;12.20;99.90
12166;DHT22;6146;48.128;11.476;2023-04-24T07:42:02;12.20;99.90
12166;DHT22;6146;48.128;11.476;2023-04-24T07:44:29;12.10;99.90
12166;DHT22;6146;48.128;11.476;2023-04-24T07:46:55;12.00;99.90
12166;DHT22;6146;48.128;11.476;2023-04-24T07:49:21;12.00;99.90
12166;DHT22;6146;48.128;11.476;2023-04-24T07:51:46;12.00;99.90
12166;DHT22;6146;48.128;11.476;2023-04-24T07:54:12;12.00;99.90
12166;DHT22;6146;48.128;11.476;2023-04-24T07:56:38;12.20;99.90
12166;DHT22;6146;48.128;11.476;2023-04-24T07:59:04;12.30;99.90
12166;DHT22;6146;48.128;11.476;2023-04-24T08:01:30;12.30;99.90
12166;DHT22;6146;48.128;11.476;2023-04-24T08:03:55;12.40;99.90
12166;DHT22;6146;48.128;11.476;2023-04-24T08:06:22;12.50;99.90
12166;DHT22;6146;48.128;11.476;2023-04-24T08:08:47;12.80;99.90
12166;DHT22;6146;48.128;11.476;2023-04-24T08:11:13;14.00;99.90
12166;DHT22;6146;48.128;11.476;2023-04-24T08:13:38;13.00;99.90
12166;DHT22;6146;48.128;11.476;2023-04-24T08:16:04;12.60;99.90
12166;DHT22;6146;48.128;11.476;2023-04-24T08:18:29;12.40;99.90
12166;DHT22;6146;48.128;11.476;2023-04-24T08:20:55;12.40;99.90
12166;DHT22;6146;48.128;11.476;2023-04-24T08:23:21;12.20;99.90
12166;DHT22;6146;48.128;11.476;2023-04-24T08:25:47;12.10;99.90
12166;DHT22;6146;48.128;11.476;2023-04-24T08:28:13;11.90;99.90
12166;DHT22;6146;48.128;11.476;2023-04-24T08:30:45;11.90;99.90
12166;DHT22;6146;48.128;11.476;2023-04-24T08:33:11;11.70;99.90
12166;DHT22;6146;48.128;11.476;2023-04-24T08:35:36;11.40;99.90
12166;DHT22;6146;48.128;11.476;2023-04-24T08:38:02;11.20;99.90
12166;DHT22;6146;48.128;11.476;2023-04-24T08:40:28;11.10;99.90
12166;DHT22;6146;48.128;11.476;2023-04-24T08:42:55;10.90;99.90
12166;DHT22;6146;48.128;11.476;2023-04-24T08:45:24;11.10;99.90
12166;DHT22;6146;48.128;11.476;2023-04-24T08:47:50;11.40;99.90
12166;DHT22;6146;48.128;11.476;2023-04-24T08:50:17;11.80;99.90
12166;DHT22;6146;48.128;11.476;2023-04-24T08:52:43;12.10;99.90
12166;DHT22;6146;48.128;11.476;2023-04-24T08:55:09;11.80;99.90
12166;DHT22;6146;48.128;11.476;2023-04-24T08:57:35;11.60;99.90
12166;DHT22;6146;48.128;11.476;2023-04-24T09:00:04;11.40;99.90
12166;DHT22;6146;48.128;11.476;2023-04-24T09:02:30;11.20;99.90
12166;DHT22;6146;48.128;11.476;2023-04-24T09:04:57;11.30;99.90
12166;DHT22;6146;48.128;11.476;2023-04-24T09:07:24;11.20;99.90
12166;DHT22;6146;48.128;11.476;2023-04-24T09:09:51;11.20;99.90
12166;DHT22;6146;48.128;11.476;2023-04-24T09:12:18;11.30;99.90
12166;DHT22;6146;48.128;11.476;2023-04-24T09:14:45;11.50;99.90
12166;DHT22;6146;48.128;11.476;2023-04-24T09:17:13;11.60;99.90
12166;DHT22;6146;48.128;11.476;2023-04-24T09:19:40;11.70;99.90
12166;DHT22;6146;48.128;11.476;2023-04-24T09:22:07;11.80;99.90
12166;DHT22;6146;48.128;11.476;2023-04-24T09:24:34;11.90;99.90
12166;DHT22;6146;48.128;11.476;2023-04-24T09:27:01;11.90;99.90
12166;DHT22;6146;48.128;11.476;2023-04-24T09:29:27;11.80;99.90
12166;DHT22;6146;48.128;11.476;2023-04-24T09:31:53;12.00;99.90
12166;DHT22;6146;48.128;11.476;2023-04-24T09:34:23;12.30;99.90
12166;DHT22;6146;48.128;11.476;2023-04-24T09:36:49;12.50;99.90
12166;DHT22;6146;48.128;11.476;2023-04-24T09:39:16;12.90;99.90
12166;DHT22;6146;48.128;11.476;2023-04-24T09:41:53;13.00;99.90
12166;DHT22;6146;48.128;11.476;2023-04-24T09:44:21;13.10;99.90
12166;DHT22;6146;48.128;11.476;2023-04-24T09:46:53;13.20;99.90
12166;DHT22;6146;48.128;11.476;2023-04-24T09:49:26;13.30;99.90
12166;DHT22;6146;48.128;11.476;2023-04-24T09:51:52;12.20;99.90
12166;DHT22;6146;48.128;11.476;2023-04-24T09:54:19;13.90;99.90
12166;DHT22;6146;48.128;11.476;2023-04-24T09:56:47;14.10;99.90
12166;DHT22;6146;48.128;11.476;2023-04-24T09:59:14;14.40;99.90
12166;DHT22;6146;48.128;11.476;2023-04-24T10:01:40;14.80;99.90
12166;DHT22;6146;48.128;11.476;2023-04-24T10:04:22;14.90;99.90
12166;DHT22;6146;48.128;11.476;2023-04-24T10:06:49;15.30;99.90
12166;DHT22;6146;48.128;11.476;2023-04-24T10:09:16;15.40;99.90
12166;DHT22;6146;48.128;11.476;2023-04-24T10:11:44;15.60;99.90
12166;DHT22;6146;48.128;11.476;2023-04-24T10:14:18;15.40;99.90
12166;DHT22;6146;48.128;11.476;2023-04-24T10:16:44;15.00;99.90
12166;DHT22;6146;48.128;11.476;2023-04-24T10:19:12;14.50;99.90
12166;DHT22;6146;48.128;11.476;2023-04-24T10:21:40;14.70;99.90
12166;DHT22;6146;48.128;11.476;2023-04-24T10:24:08;15.40;99.90
12166;DHT22;6146;48.128;11.476;2023-04-24T10:26:35;16.00;99.90
12166;DHT22;6146;48.128;11.476;2023-04-24T10:29:01;15.90;99.90
12166;DHT22;6146;48.128;11.476;2023-04-24T10:31:27;15.70;99.90
12166;DHT22;6146;48.128;11.476;2023-04-24T10:33:56;15.70;99.90
12166;DHT22;6146;48.128;11.476;2023-04-24T10:36:24;15.60;99.90
12166;DHT22;6146;48.128;11.476;2023-04-24T10:38:53;15.20;99.90
12166;DHT22;6146;48.128;11.476;2023-04-24T10:41:20;14.60;99.90
12166;DHT22;6146;48.128;11.476;2023-04-24T10:44:03;14.20;99.90
12166;DHT22;6146;48.128;11.476;2023-04-24T10:46:30;13.80;99.90
12166;DHT22;6146;48.128;11.476;2023-04-24T10:48:56;13.10;99.90
12166;DHT22;6146;48.128;11.476;2023-04-24T10:51:23;11.90;99.90
12166;DHT22;6146;48.128;11.476;2023-04-24T10:53:52;10.80;99.90
12166;DHT22;6146;48.128;11.476;2023-04-24T10:56:18;10.30;99.90
12166;DHT22;6146;48.128;11.476;2023-04-24T10:58:51;10.10;99.90
12166;DHT22;6146;48.128;11.476;2023-04-24T11:01:38;10.10;99.90
12166;DHT22;6146;48.128;11.476;2023-04-24T11:04:03;10.30;99.90
12166;DHT22;6146;48.128;11.476;2023-04-24T11:06:34;10.70;99.90
12166;DHT22;6146;48.128;11.476;2023-04-24T11:09:07;11.20;99.90
12166;DHT22;6146;48.128;11.476;2023-04-24T11:11:35;12.10;99.90
12166;DHT22;6146;48.128;11.476;2023-04-24T11:14:02;13.20;99.90
12166;DHT22;6146;48.128;11.476;2023-04-24T11:16:33;14.20;99.90
12166;DHT22;6146;48.128;11.476;2023-04-24T11:19:07;15.20;99.90
12166;DHT22;6146;48.128;11.476;2023-04-24T11:27:15;17.80;99.90
12166;DHT22;6146;48.128;11.476;2023-04-24T11:29:44;18.50;99.90
12166;DHT22;6146;48.128;11.476;2023-04-24T11:32:39;18.30;99.90
12166;DHT22;6146;48.128;11.476;2023-04-24T11:35:04;18.00;99.90
12166;DHT22;6146;48.128;11.476;2023-04-24T11:37:41;17.90;99.90
12166;DHT22;6146;48.128;11.476;2023-04-24T11:40:09;17.90;99.90
12166;DHT22;6146;48.128;11.476;2023-04-24T11:42:36;17.10;99.90
12166;DHT22;6146;48.128;11.476;2023-04-24T11:45:06;16.20;99.90
12166;DHT22;6146;48.128;11.476;2023-04-24T11:47:32;15.60;99.90
12166;DHT22;6146;48.128;11.476;2023-04-24T11:50:02;15.00;99.90
12166;DHT22;6146;48.128;11.476;2023-04-24T11:52:29;14.80;99.90
12166;DHT22;6146;48.128;11.476;2023-04-24T11:54:55;14.90;99.90
12166;DHT22;6146;48.128;11.476;2023-04-24T11:57:22;14.80;99.90
12166;DHT22;6146;48.128;11.476;2023-04-24T11:59:49;14.60;99.90
12166;DHT22;6146;48.128;11.476;2023-04-24T12:02:25;15.00;99.90
12166;DHT22;6146;48.128;11.476;2023-04-24T12:04:52;15.40;99.90
12166;DHT22;6146;48.128;11.476;2023-04-24T12:07:17;15.70;99.90
12166;DHT22;6146;48.128;11.476;2023-04-24T12:09:49;15.40;99.90
12166;DHT22;6146;48.128;11.476;2023-04-24T12:12:16;15.10;99.90
12166;DHT22;6146;48.128;11.476;2023-04-24T12:14:57;14.60;99.90
12166;DHT22;6146;48.128;11.476;2023-04-24T12:17:29;14.40;99.90
12166;DHT22;6146;48.128;11.476;2023-04-24T12:20:07;14.00;99.90
12166;DHT22;6146;48.128;11.476;2023-04-24T12:22:54;14.00;99.90
12166;DHT22;6146;48.128;11.476;2023-04-24T12:25:25;14.20;99.90
12166;DHT22;6146;48.128;11.476;2023-04-24T12:28:11;15.00;99.90
12166;DHT22;6146;48.128;11.476;2023-04-24T12:30:55;15.80;99.90
12166;DHT22;6146;48.128;11.476;2023-04-24T12:33:21;16.50;99.90
12166;DHT22;6146;48.128;11.476;2023-04-24T12:35:48;17.00;99.90
12166;DHT22;6146;48.128;11.476;2023-04-24T12:38:15;17.40;99.90
12166;DHT22;6146;48.128;11.476;2023-04-24T12:40:44;17.50;99.90
12166;DHT22;6146;48.128;11.476;2023-04-24T12:43:17;17.10;99.90
12166;DHT22;6146;48.128;11.476;2023-04-24T12:45:43;16.80;99.30
12166;DHT22;6146;48.128;11.476;2023-04-24T12:48:10;16.20;99.00
12166;DHT22;6146;48.128;11.476;2023-04-24T12:50:36;16.00;99.40
12166;DHT22;6146;48.128;11.476;2023-04-24T12:53:01;15.80;99.90
12166;DHT22;6146;48.128;11.476;2023-04-24T12:55:27;15.80;99.90
12166;DHT22;6146;48.128;11.476;2023-04-24T12:57:53;16.20;99.90
12166;DHT22;6146;48.128;11.476;2023-04-24T13:00:20;16.40;98.30
12166;DHT22;6146;48.128;11.476;2023-04-24T13:02:46;16.80;97.40
12166;DHT22;6146;48.128;11.476;2023-04-24T13:05:12;16.90;99.50
12166;DHT22;6146;48.128;11.476;2023-04-24T13:07:39;16.70;99.90
12166;DHT22;6146;48.128;11.476;2023-04-24T13:10:05;16.50;99.90
12166;DHT22;6146;48.128;11.476;2023-04-24T13:12:31;16.20;99.90
12166;DHT22;6146;48.128;11.476;2023-04-24T13:14:58;15.90;99.90
12166;DHT22;6146;48.128;11.476;2023-04-24T13:17:24;15.30;99.90
12166;DHT22;6146;48.128;11.476;2023-04-24T13:19:51;14.90;99.90
12166;DHT22;6146;48.128;11.476;2023-04-24T13:22:17;14.60;99.90
12166;DHT22;6146;48.128;11.476;2023-04-24T13:24:44;14.40;99.90
12166;DHT22;6146;48.128;11.476;2023-04-24T13:27:10;14.50;99.90
12166;DHT22;6146;48.128;11.476;2023-04-24T13:29:36;15.20;99.90
12166;DHT22;6146;48.128;11.476;2023-04-24T13:32:02;15.50;99.90
12166;DHT22;6146;48.128;11.476;2023-04-24T13:34:27;15.70;99.90
12166;DHT22;6146;48.128;11.476;2023-04-24T13:36:55;15.60;99.90
12166;DHT22;6146;48.128;11.476;2023-04-24T13:39:22;15.40;99.20
12166;DHT22;6146;48.128;11.476;2023-04-24T13:41:47;15.10;99.90
12166;DHT22;6146;48.128;11.476;2023-04-24T13:44:14;14.90;99.90
12166;DHT22;6146;48.128;11.476;2023-04-24T13:46:40;15.00;99.50
12166;DHT22;6146;48.128;11.476;2023-04-24T13:49:06;15.10;99.90
12166;DHT22;6146;48.128;11.476;2023-04-24T13:51:32;15.30;99.90
12166;DHT22;6146;48.128;11.476;2023-04-24T13:53:58;15.40;99.20
12166;DHT22;6146;48.128;11.476;2023-04-24T13:56:23;15.40;99.70
12166;DHT22;6146;48.128;11.476;2023-04-24T13:58:49;15.20;96.20
12166;DHT22;6146;48.128;11.476;2023-04-24T14:01:15;14.80;96.30
12166;DHT22;6146;48.128;11.476;2023-04-24T14:03:41;14.80;98.20
12166;DHT22;6146;48.128;11.476;2023-04-24T14:06:08;15.10;99.90
12166;DHT22;6146;48.128;11.476;2023-04-24T14:08:34;15.40;99.90
12166;DHT22;6146;48.128;11.476;2023-04-24T14:10:59;15.50;98.50
12166;DHT22;6146;48.128;11.476;2023-04-24T14:13:25;15.40;98.20
12166;DHT22;6146;48.128;11.476;2023-04-24T14:15:51;15.30;99.00
12166;DHT22;6146;48.128;11.476;2023-04-24T14:18:18;15.30;98.50
12166;DHT22;6146;48.128;11.476;2023-04-24T14:20:44;15.40;98.00
12166;DHT22;6146;48.128;11.476;2023-04-24T14:23:09;15.50;99.70
12166;DHT22;6146;48.128;11.476;2023-04-24T14:25:35;15.50;99.50
12166;DHT22;6146;48.128;11.476;2023-04-24T14:28:00;15.70;98.30
12166;DHT22;6146;48.128;11.476;2023-04-24T14:30:26;15.60;98.00
12166;DHT22;6146;48.128;11.476;2023-04-24T14:32:51;15.40;98.10
12166;DHT22;6146;48.128;11.476;2023-04-24T14:35:17;15.30;98.50
12166;DHT22;6146;48.128;11.476;2023-04-24T14:37:43;15.30;98.50
12166;DHT22;6146;48.128;11.476;2023-04-24T14:40:09;15.30;97.70
12166;DHT22;6146;48.128;11.476;2023-04-24T14:42:34;15.30;98.30
12166;DHT22;6146;48.128;11.476;2023-04-24T14:45:01;15.10;97.20
12166;DHT22;6146;48.128;11.476;2023-04-24T14:47:26;15.00;98.00
12166;DHT22;6146;48.128;11.476;2023-04-24T14:49:52;14.80;97.30
12166;DHT22;6146;48.128;11.476;2023-04-24T14:52:17;14.90;99.10
12166;DHT22;6146;48.128;11.476;2023-04-24T14:54:43;15.00;97.30
12166;DHT22;6146;48.128;11.476;2023-04-24T14:57:09;15.20;96.40
12166;DHT22;6146;48.128;11.476;2023-04-24T14:59:35;15.10;95.70
12166;DHT22;6146;48.128;11.476;2023-04-24T15:02:00;15.10;95.90
12166;DHT22;6146;48.128;11.476;2023-04-24T15:04:27;15.10;96.20
12166;DHT22;6146;48.128;11.476;2023-04-24T15:06:54;15.20;96.40
12166;DHT22;6146;48.128;11.476;2023-04-24T15:09:21;15.10;95.50
12166;DHT22;6146;48.128;11.476;2023-04-24T15:11:48;14.70;96.30
12166;DHT22;6146;48.128;11.476;2023-04-24T15:14:14;14.70;96.90
12166;DHT22;6146;48.128;11.476;2023-04-24T15:16:40;14.80;95.50
12166;DHT22;6146;48.128;11.476;2023-04-24T15:19:05;14.80;95.90
12166;DHT22;6146;48.128;11.476;2023-04-24T15:21:31;14.70;94.70
12166;DHT22;6146;48.128;11.476;2023-04-24T15:23:57;14.70;95.30
12166;DHT22;6146;48.128;11.476;2023-04-24T15:26:23;14.80;93.70
12166;DHT22;6146;48.128;11.476;2023-04-24T15:28:49;14.90;94.30
12166;DHT22;6146;48.128;11.476;2023-04-24T15:31:14;14.80;92.90
12166;DHT22;6146;48.128;11.476;2023-04-24T15:33:40;14.70;93.50
12166;DHT22;6146;48.128;11.476;2023-04-24T15:36:06;14.70;94.40
12166;DHT22;6146;48.128;11.476;2023-04-24T15:38:32;14.70;93.70